This is the latest recevied weather packets stored in our database for station/object HP1COO-13. If no packets are shown the sender has not sent any weather packets the latest 10 day(s).
| Time | Temp. | Humidity | Pressure | Rain* | Wind** | Luminosity | Snow |
|---|---|---|---|---|---|---|---|
| 1787432237 | 24.44° C | 92% | 1006.8 hPa | 33.53 mm | - | - | - |
| 1787431604 | 25° C | 93% | 1006.7 hPa | 28.96 mm | - | - | - |
| 1787430971 | 26.67° C | 90% | 1006.5 hPa | 20.07 mm | - | - | - |
| 1787429705 | 30° C | 82% | 1006.4 hPa | 0 mm | - | - | - |
| 1787429072 | 32.78° C | 73% | 1006.2 hPa | 0 mm | - | - | - |
| 1787428439 | 33.33° C | 71% | 1006 hPa | 0 mm | - | - | - |
| 1787427806 | 33.89° C | 72% | 1006.1 hPa | 0 mm | - | - | - |
| 1787427173 | 33.89° C | 70% | 1006 hPa | 0 mm | - | - | - |
| 1787426540 | 33.89° C | 69% | 1005.9 hPa | 0 mm | - | - | - |
| 1787425907 | 33.89° C | 68% | 1006 hPa | 0 mm | - | - | - |
| 1787425275 | 33.89° C | 69% | 1006.1 hPa | 0 mm | - | - | - |
| 1787424693 | 34.44° C | 67% | 1006.6 hPa | 0 mm | - | - | - |
| 1787424641 | 33.89° C | 68% | 1006.1 hPa | 0 mm | - | - | - |
| 1787424008 | 33.89° C | 69% | 1006.2 hPa | 0 mm | - | - | - |
| 1787423375 | 33.33° C | 71% | 1006.4 hPa | 0 mm | - | - | - |
| 1787422742 | 32.78° C | 73% | 1006.7 hPa | 0 mm | - | - | - |
| 1787422109 | 33.89° C | 71% | 1006.9 hPa | 0 mm | - | - | - |
| 1787421476 | 33.33° C | 72% | 1006.8 hPa | 0 mm | - | - | - |
| 1787420843 | 32.78° C | 71% | 1006.9 hPa | 0 mm | - | - | - |
| 1787420210 | 32.78° C | 71% | 1007.2 hPa | 0 mm | - | - | - |
| 1787419577 | 32.78° C | 72% | 1007.1 hPa | 0 mm | - | - | - |
| 1787418944 | 32.22° C | 74% | 1007.4 hPa | 0 mm | - | - | - |
| 1787418311 | 31.67° C | 77% | 1007.6 hPa | 0 mm | - | - | - |
| 1787417678 | 31.11° C | 80% | 1008 hPa | 0 mm | - | - | - |
| 1787417045 | 30.56° C | 83% | 1008.3 hPa | 0 mm | - | - | - |
* Rain latest hour (hover to see other rain measurements)
** Current wind speed in m/s (hover to see current wind gust speed)